sensor_id;sensor_type;location;lat;lon;timestamp;temperature;humidity
7341;DHT22;6870;50.944;6.932;2023-03-23T00:01:25;20.50;36.20
7341;DHT22;6870;50.944;6.932;2023-03-23T00:03:56;20.40;36.50
7341;DHT22;6870;50.944;6.932;2023-03-23T00:06:26;20.30;35.80
7341;DHT22;6870;50.944;6.932;2023-03-23T00:09:00;20.30;36.10
7341;DHT22;6870;50.944;6.932;2023-03-23T00:11:29;20.30;36.10
7341;DHT22;6870;50.944;6.932;2023-03-23T00:13:59;20.20;36.20
7341;DHT22;6870;50.944;6.932;2023-03-23T00:16:28;20.30;36.50
7341;DHT22;6870;50.944;6.932;2023-03-23T00:18:59;20.20;36.40
7341;DHT22;6870;50.944;6.932;2023-03-23T00:21:29;20.40;36.70
7341;DHT22;6870;50.944;6.932;2023-03-23T00:24:03;20.40;37.00
7341;DHT22;6870;50.944;6.932;2023-03-23T00:26:33;20.20;37.10
7341;DHT22;6870;50.944;6.932;2023-03-23T00:29:02;20.30;37.40
7341;DHT22;6870;50.944;6.932;2023-03-23T00:31:30;20.50;37.30
7341;DHT22;6870;50.944;6.932;2023-03-23T00:33:59;20.20;37.60
7341;DHT22;6870;50.944;6.932;2023-03-23T00:36:29;20.30;37.70
7341;DHT22;6870;50.944;6.932;2023-03-23T00:38:57;20.30;37.10
7341;DHT22;6870;50.944;6.932;2023-03-23T00:41:28;20.30;37.30
7341;DHT22;6870;50.944;6.932;2023-03-23T00:43:57;20.10;37.20
7341;DHT22;6870;50.944;6.932;2023-03-23T00:46:26;20.40;37.70
7341;DHT22;6870;50.944;6.932;2023-03-23T00:48:54;20.30;37.50
7341;DHT22;6870;50.944;6.932;2023-03-23T00:51:22;20.30;37.40
7341;DHT22;6870;50.944;6.932;2023-03-23T00:53:50;20.20;37.50
7341;DHT22;6870;50.944;6.932;2023-03-23T00:56:17;20.20;37.60
7341;DHT22;6870;50.944;6.932;2023-03-23T00:58:46;20.30;37.50
7341;DHT22;6870;50.944;6.932;2023-03-23T01:01:13;20.30;37.60
7341;DHT22;6870;50.944;6.932;2023-03-23T01:03:40;20.10;37.20
7341;DHT22;6870;50.944;6.932;2023-03-23T01:06:09;20.20;37.70
7341;DHT22;6870;50.944;6.932;2023-03-23T01:08:39;20.30;37.80
7341;DHT22;6870;50.944;6.932;2023-03-23T01:11:13;20.40;37.90
7341;DHT22;6870;50.944;6.932;2023-03-23T01:13:41;20.20;37.70
7341;DHT22;6870;50.944;6.932;2023-03-23T01:16:11;20.40;38.20
7341;DHT22;6870;50.944;6.932;2023-03-23T01:18:39;20.30;38.00
7341;DHT22;6870;50.944;6.932;2023-03-23T01:21:07;20.30;38.10
7341;DHT22;6870;50.944;6.932;2023-03-23T01:23:36;20.20;37.80
7341;DHT22;6870;50.944;6.932;2023-03-23T01:26:05;20.30;38.10
7341;DHT22;6870;50.944;6.932;2023-03-23T01:28:32;20.20;37.60
7341;DHT22;6870;50.944;6.932;2023-03-23T01:31:01;20.30;38.20
7341;DHT22;6870;50.944;6.932;2023-03-23T01:33:30;20.30;38.20
7341;DHT22;6870;50.944;6.932;2023-03-23T01:35:58;20.00;38.20
7341;DHT22;6870;50.944;6.932;2023-03-23T01:38:28;20.20;38.40
7341;DHT22;6870;50.944;6.932;2023-03-23T01:40:55;20.30;38.40
7341;DHT22;6870;50.944;6.932;2023-03-23T01:43:22;20.20;38.40
7341;DHT22;6870;50.944;6.932;2023-03-23T01:45:49;20.20;38.20
7341;DHT22;6870;50.944;6.932;2023-03-23T01:48:18;20.10;38.10
7341;DHT22;6870;50.944;6.932;2023-03-23T01:50:53;20.20;38.20
7341;DHT22;6870;50.944;6.932;2023-03-23T01:53:26;20.20;38.70
7341;DHT22;6870;50.944;6.932;2023-03-23T01:55:57;20.40;38.90
7341;DHT22;6870;50.944;6.932;2023-03-23T01:58:27;19.90;38.60
7341;DHT22;6870;50.944;6.932;2023-03-23T02:00:55;19.90;38.10
7341;DHT22;6870;50.944;6.932;2023-03-23T02:03:25;20.20;38.90
7341;DHT22;6870;50.944;6.932;2023-03-23T02:05:53;20.20;39.20
7341;DHT22;6870;50.944;6.932;2023-03-23T02:08:24;20.20;39.20
7341;DHT22;6870;50.944;6.932;2023-03-23T02:10:53;20.10;39.20
7341;DHT22;6870;50.944;6.932;2023-03-23T02:13:21;20.20;39.40
7341;DHT22;6870;50.944;6.932;2023-03-23T02:15:55;20.10;39.30
7341;DHT22;6870;50.944;6.932;2023-03-23T02:18:52;20.10;39.50
7341;DHT22;6870;50.944;6.932;2023-03-23T02:21:56;20.00;39.30
7341;DHT22;6870;50.944;6.932;2023-03-23T02:24:55;20.20;39.50
7341;DHT22;6870;50.944;6.932;2023-03-23T02:27:46;20.20;39.30
7341;DHT22;6870;50.944;6.932;2023-03-23T02:30:55;19.80;39.30
7341;DHT22;6870;50.944;6.932;2023-03-23T02:33:49;19.90;39.40
7341;DHT22;6870;50.944;6.932;2023-03-23T02:36:23;20.00;39.50
7341;DHT22;6870;50.944;6.932;2023-03-23T02:38:59;20.20;39.20
7341;DHT22;6870;50.944;6.932;2023-03-23T02:41:31;19.70;39.50
7341;DHT22;6870;50.944;6.932;2023-03-23T02:44:02;20.00;39.90
7341;DHT22;6870;50.944;6.932;2023-03-23T02:46:30;20.10;40.10
7341;DHT22;6870;50.944;6.932;2023-03-23T02:49:00;19.90;39.50
7341;DHT22;6870;50.944;6.932;2023-03-23T02:51:29;20.10;40.10
7341;DHT22;6870;50.944;6.932;2023-03-23T02:53:58;20.20;40.20
7341;DHT22;6870;50.944;6.932;2023-03-23T02:56:26;19.80;39.80
7341;DHT22;6870;50.944;6.932;2023-03-23T02:58:54;19.70;39.70
7341;DHT22;6870;50.944;6.932;2023-03-23T03:01:55;19.90;40.00
7341;DHT22;6870;50.944;6.932;2023-03-23T03:04:26;20.10;40.70
7341;DHT22;6870;50.944;6.932;2023-03-23T03:09:58;20.10;40.90
7341;DHT22;6870;50.944;6.932;2023-03-23T03:12:32;19.70;40.50
7341;DHT22;6870;50.944;6.932;2023-03-23T03:15:25;19.90;40.50
7341;DHT22;6870;50.944;6.932;2023-03-23T03:17:59;19.90;40.00
7341;DHT22;6870;50.944;6.932;2023-03-23T03:20:34;20.10;40.90
7341;DHT22;6870;50.944;6.932;2023-03-23T03:23:05;19.70;40.50
7341;DHT22;6870;50.944;6.932;2023-03-23T03:25:36;20.10;40.80
7341;DHT22;6870;50.944;6.932;2023-03-23T03:28:04;20.10;41.00
7341;DHT22;6870;50.944;6.932;2023-03-23T03:30:32;20.20;40.90
7341;DHT22;6870;50.944;6.932;2023-03-23T03:33:00;20.00;40.70
7341;DHT22;6870;50.944;6.932;2023-03-23T03:35:29;20.20;40.60
7341;DHT22;6870;50.944;6.932;2023-03-23T03:38:05;19.70;40.40
7341;DHT22;6870;50.944;6.932;2023-03-23T03:40:34;20.20;40.60
7341;DHT22;6870;50.944;6.932;2023-03-23T03:43:01;20.10;40.40
7341;DHT22;6870;50.944;6.932;2023-03-23T03:45:29;20.00;40.30
7341;DHT22;6870;50.944;6.932;2023-03-23T03:47:57;20.10;40.50
7341;DHT22;6870;50.944;6.932;2023-03-23T03:50:26;20.10;40.70
7341;DHT22;6870;50.944;6.932;2023-03-23T03:52:55;19.90;40.50
7341;DHT22;6870;50.944;6.932;2023-03-23T03:55:22;20.20;40.60
7341;DHT22;6870;50.944;6.932;2023-03-23T03:57:49;20.10;40.00
7341;DHT22;6870;50.944;6.932;2023-03-23T04:00:17;19.80;40.50
7341;DHT22;6870;50.944;6.932;2023-03-23T04:02:46;19.90;40.50
7341;DHT22;6870;50.944;6.932;2023-03-23T04:05:17;20.10;40.70
7341;DHT22;6870;50.944;6.932;2023-03-23T04:07:45;20.20;40.90
7341;DHT22;6870;50.944;6.932;2023-03-23T04:10:19;20.10;40.80
7341;DHT22;6870;50.944;6.932;2023-03-23T04:12:48;20.10;41.00
7341;DHT22;6870;50.944;6.932;2023-03-23T04:15:15;20.30;41.10
7341;DHT22;6870;50.944;6.932;2023-03-23T04:17:42;19.70;41.20
7341;DHT22;6870;50.944;6.932;2023-03-23T04:20:10;19.80;40.60
7341;DHT22;6870;50.944;6.932;2023-03-23T04:22:43;20.10;40.90
7341;DHT22;6870;50.944;6.932;2023-03-23T04:25:11;19.90;40.90
7341;DHT22;6870;50.944;6.932;2023-03-23T04:27:41;19.90;41.00
7341;DHT22;6870;50.944;6.932;2023-03-23T04:30:12;20.10;41.20
7341;DHT22;6870;50.944;6.932;2023-03-23T04:32:40;19.90;41.10
7341;DHT22;6870;50.944;6.932;2023-03-23T04:35:10;20.10;40.80
7341;DHT22;6870;50.944;6.932;2023-03-23T04:37:38;20.00;41.00
7341;DHT22;6870;50.944;6.932;2023-03-23T04:40:07;20.00;41.30
7341;DHT22;6870;50.944;6.932;2023-03-23T04:42:38;20.20;41.20
7341;DHT22;6870;50.944;6.932;2023-03-23T04:45:08;20.20;41.20
7341;DHT22;6870;50.944;6.932;2023-03-23T04:47:36;20.00;40.80
7341;DHT22;6870;50.944;6.932;2023-03-23T04:50:08;19.90;41.00
7341;DHT22;6870;50.944;6.932;2023-03-23T04:52:36;19.80;40.60
7341;DHT22;6870;50.944;6.932;2023-03-23T04:55:07;19.60;40.70
7341;DHT22;6870;50.944;6.932;2023-03-23T04:57:35;19.90;40.90
7341;DHT22;6870;50.944;6.932;2023-03-23T05:00:02;20.20;41.20
7341;DHT22;6870;50.944;6.932;2023-03-23T05:02:36;20.10;41.00
7341;DHT22;6870;50.944;6.932;2023-03-23T05:05:05;20.10;40.90
7341;DHT22;6870;50.944;6.932;2023-03-23T05:07:33;20.20;40.90
7341;DHT22;6870;50.944;6.932;2023-03-23T05:10:00;20.00;40.80
7341;DHT22;6870;50.944;6.932;2023-03-23T05:12:27;20.20;40.80
7341;DHT22;6870;50.944;6.932;2023-03-23T05:14:54;19.70;40.10
7341;DHT22;6870;50.944;6.932;2023-03-23T05:17:21;19.90;41.00
7341;DHT22;6870;50.944;6.932;2023-03-23T05:19:51;20.00;40.70
7341;DHT22;6870;50.944;6.932;2023-03-23T05:22:22;20.20;40.70
7341;DHT22;6870;50.944;6.932;2023-03-23T05:24:49;20.10;40.70
7341;DHT22;6870;50.944;6.932;2023-03-23T05:27:18;20.30;41.30
7341;DHT22;6870;50.944;6.932;2023-03-23T05:29:45;20.10;41.20
7341;DHT22;6870;50.944;6.932;2023-03-23T05:32:14;20.10;41.10
7341;DHT22;6870;50.944;6.932;2023-03-23T05:34:41;20.10;41.00
7341;DHT22;6870;50.944;6.932;2023-03-23T05:37:10;20.20;41.20
7341;DHT22;6870;50.944;6.932;2023-03-23T05:39:39;20.00;41.30
7341;DHT22;6870;50.944;6.932;2023-03-23T05:42:06;20.10;41.20
7341;DHT22;6870;50.944;6.932;2023-03-23T05:44:34;20.20;41.30
7341;DHT22;6870;50.944;6.932;2023-03-23T05:47:02;20.20;41.10
7341;DHT22;6870;50.944;6.932;2023-03-23T05:49:30;20.10;41.20
7341;DHT22;6870;50.944;6.932;2023-03-23T05:51:57;20.20;41.20
7341;DHT22;6870;50.944;6.932;2023-03-23T05:54:25;20.20;41.20
7341;DHT22;6870;50.944;6.932;2023-03-23T05:56:52;20.00;41.00
7341;DHT22;6870;50.944;6.932;2023-03-23T05:59:19;20.20;41.20
7341;DHT22;6870;50.944;6.932;2023-03-23T06:01:47;20.20;41.30
7341;DHT22;6870;50.944;6.932;2023-03-23T06:04:14;20.10;41.20
7341;DHT22;6870;50.944;6.932;2023-03-23T06:06:42;20.40;41.60
7341;DHT22;6870;50.944;6.932;2023-03-23T06:09:09;20.50;41.60
7341;DHT22;6870;50.944;6.932;2023-03-23T06:11:38;20.40;41.60
7341;DHT22;6870;50.944;6.932;2023-03-23T06:14:05;20.30;41.30
7341;DHT22;6870;50.944;6.932;2023-03-23T06:16:32;20.20;41.30
7341;DHT22;6870;50.944;6.932;2023-03-23T06:18:59;20.30;40.60
7341;DHT22;6870;50.944;6.932;2023-03-23T06:21:29;20.40;40.90
7341;DHT22;6870;50.944;6.932;2023-03-23T06:23:56;20.30;41.10
7341;DHT22;6870;50.944;6.932;2023-03-23T06:26:28;20.50;41.10
7341;DHT22;6870;50.944;6.932;2023-03-23T06:28:59;20.30;40.80
7341;DHT22;6870;50.944;6.932;2023-03-23T06:31:27;20.30;41.10
7341;DHT22;6870;50.944;6.932;2023-03-23T06:33:55;20.50;41.10
7341;DHT22;6870;50.944;6.932;2023-03-23T06:36:22;20.00;40.70
7341;DHT22;6870;50.944;6.932;2023-03-23T06:38:49;20.40;41.10
7341;DHT22;6870;50.944;6.932;2023-03-23T06:41:16;20.30;41.10
7341;DHT22;6870;50.944;6.932;2023-03-23T06:43:43;20.20;40.80
7341;DHT22;6870;50.944;6.932;2023-03-23T06:46:13;20.30;41.00
7341;DHT22;6870;50.944;6.932;2023-03-23T06:48:40;20.20;40.80
7341;DHT22;6870;50.944;6.932;2023-03-23T06:51:07;20.20;40.70
7341;DHT22;6870;50.944;6.932;2023-03-23T06:53:34;20.20;40.60
7341;DHT22;6870;50.944;6.932;2023-03-23T06:56:01;20.30;40.50
7341;DHT22;6870;50.944;6.932;2023-03-23T06:58:28;20.30;40.40
7341;DHT22;6870;50.944;6.932;2023-03-23T07:00:56;20.40;40.40
7341;DHT22;6870;50.944;6.932;2023-03-23T07:03:25;20.50;40.70
7341;DHT22;6870;50.944;6.932;2023-03-23T07:05:53;20.20;40.60
7341;DHT22;6870;50.944;6.932;2023-03-23T07:08:20;20.30;39.40
7341;DHT22;6870;50.944;6.932;2023-03-23T07:10:50;20.50;31.80
7341;DHT22;6870;50.944;6.932;2023-03-23T07:13:19;20.20;30.20
7341;DHT22;6870;50.944;6.932;2023-03-23T07:15:46;20.10;30.80
7341;DHT22;6870;50.944;6.932;2023-03-23T07:18:14;19.60;30.20
7341;DHT22;6870;50.944;6.932;2023-03-23T07:20:43;19.70;29.50
7341;DHT22;6870;50.944;6.932;2023-03-23T07:23:10;19.80;29.10
7341;DHT22;6870;50.944;6.932;2023-03-23T07:25:37;19.50;27.70
7341;DHT22;6870;50.944;6.932;2023-03-23T07:28:04;19.50;27.40
7341;DHT22;6870;50.944;6.932;2023-03-23T07:30:32;18.90;27.90
7341;DHT22;6870;50.944;6.932;2023-03-23T07:32:58;19.30;29.20
7341;DHT22;6870;50.944;6.932;2023-03-23T07:35:25;19.40;30.50
7341;DHT22;6870;50.944;6.932;2023-03-23T07:37:54;19.80;30.20
7341;DHT22;6870;50.944;6.932;2023-03-23T07:40:21;20.00;30.00
7341;DHT22;6870;50.944;6.932;2023-03-23T07:42:52;20.00;29.90
7341;DHT22;6870;50.944;6.932;2023-03-23T07:45:20;20.40;30.10
7341;DHT22;6870;50.944;6.932;2023-03-23T07:47:48;20.10;29.90
7341;DHT22;6870;50.944;6.932;2023-03-23T07:50:16;20.20;30.00
7341;DHT22;6870;50.944;6.932;2023-03-23T07:52:46;20.10;30.00
7341;DHT22;6870;50.944;6.932;2023-03-23T07:55:15;20.20;30.10
7341;DHT22;6870;50.944;6.932;2023-03-23T07:57:44;20.30;30.20
7341;DHT22;6870;50.944;6.932;2023-03-23T08:00:12;20.30;30.70
7341;DHT22;6870;50.944;6.932;2023-03-23T08:02:44;20.30;30.90
7341;DHT22;6870;50.944;6.932;2023-03-23T08:05:12;20.40;31.20
7341;DHT22;6870;50.944;6.932;2023-03-23T08:07:40;20.30;31.10
7341;DHT22;6870;50.944;6.932;2023-03-23T08:10:09;20.10;30.90
7341;DHT22;6870;50.944;6.932;2023-03-23T08:12:39;20.20;30.80
7341;DHT22;6870;50.944;6.932;2023-03-23T08:15:08;20.20;31.00
7341;DHT22;6870;50.944;6.932;2023-03-23T08:17:39;20.20;31.10
7341;DHT22;6870;50.944;6.932;2023-03-23T08:20:08;20.40;31.30
7341;DHT22;6870;50.944;6.932;2023-03-23T08:22:39;20.40;31.30
7341;DHT22;6870;50.944;6.932;2023-03-23T08:25:10;20.30;31.30
7341;DHT22;6870;50.944;6.932;2023-03-23T08:27:39;20.30;31.40
7341;DHT22;6870;50.944;6.932;2023-03-23T08:30:11;20.40;31.40
7341;DHT22;6870;50.944;6.932;2023-03-23T08:32:40;20.60;31.80
7341;DHT22;6870;50.944;6.932;2023-03-23T08:35:08;20.30;31.20
7341;DHT22;6870;50.944;6.932;2023-03-23T08:37:37;20.60;31.50
7341;DHT22;6870;50.944;6.932;2023-03-23T08:40:08;20.40;31.40
7341;DHT22;6870;50.944;6.932;2023-03-23T08:42:36;20.40;31.30
7341;DHT22;6870;50.944;6.932;2023-03-23T08:45:07;20.50;31.60
7341;DHT22;6870;50.944;6.932;2023-03-23T08:47:36;20.30;31.30
7341;DHT22;6870;50.944;6.932;2023-03-23T08:50:05;20.50;31.40
7341;DHT22;6870;50.944;6.932;2023-03-23T08:52:33;20.60;31.40
7341;DHT22;6870;50.944;6.932;2023-03-23T08:55:01;20.50;31.30
7341;DHT22;6870;50.944;6.932;2023-03-23T08:57:28;20.70;31.20
7341;DHT22;6870;50.944;6.932;2023-03-23T08:59:56;20.40;31.00
7341;DHT22;6870;50.944;6.932;2023-03-23T09:02:27;21.00;31.70
7341;DHT22;6870;50.944;6.932;2023-03-23T09:04:56;20.40;31.20
7341;DHT22;6870;50.944;6.932;2023-03-23T09:07:23;20.60;31.40
7341;DHT22;6870;50.944;6.932;2023-03-23T09:09:50;20.40;31.00
7341;DHT22;6870;50.944;6.932;2023-03-23T09:12:17;20.40;30.30
7341;DHT22;6870;50.944;6.932;2023-03-23T09:14:45;20.30;29.30
7341;DHT22;6870;50.944;6.932;2023-03-23T09:17:12;20.50;29.20
7341;DHT22;6870;50.944;6.932;2023-03-23T09:19:40;20.60;29.40
7341;DHT22;6870;50.944;6.932;2023-03-23T09:22:08;20.60;28.30
7341;DHT22;6870;50.944;6.932;2023-03-23T09:24:35;20.60;27.30
7341;DHT22;6870;50.944;6.932;2023-03-23T09:27:02;20.20;26.70
7341;DHT22;6870;50.944;6.932;2023-03-23T09:29:30;20.50;26.40
7341;DHT22;6870;50.944;6.932;2023-03-23T09:31:57;20.40;27.70
7341;DHT22;6870;50.944;6.932;2023-03-23T09:34:25;20.40;27.60
7341;DHT22;6870;50.944;6.932;2023-03-23T09:36:56;20.50;27.60
7341;DHT22;6870;50.944;6.932;2023-03-23T09:39:23;20.40;27.50
7341;DHT22;6870;50.944;6.932;2023-03-23T09:44:55;21.00;28.00
7341;DHT22;6870;50.944;6.932;2023-03-23T09:47:33;20.90;28.00
7341;DHT22;6870;50.944;6.932;2023-03-23T09:50:10;21.20;28.10
7341;DHT22;6870;50.944;6.932;2023-03-23T09:52:43;21.10;28.10
7341;DHT22;6870;50.944;6.932;2023-03-23T09:55:14;21.40;28.30
7341;DHT22;6870;50.944;6.932;2023-03-23T09:57:47;21.10;28.10
7341;DHT22;6870;50.944;6.932;2023-03-23T10:00:22;21.10;28.10
7341;DHT22;6870;50.944;6.932;2023-03-23T10:02:59;21.20;27.60
7341;DHT22;6870;50.944;6.932;2023-03-23T10:05:34;21.30;28.20
7341;DHT22;6870;50.944;6.932;2023-03-23T10:08:08;21.50;28.20
7341;DHT22;6870;50.944;6.932;2023-03-23T10:10:50;21.30;28.10
7341;DHT22;6870;50.944;6.932;2023-03-23T10:13:43;21.40;27.60
7341;DHT22;6870;50.944;6.932;2023-03-23T10:16:21;21.40;27.90
7341;DHT22;6870;50.944;6.932;2023-03-23T10:18:56;21.50;27.90
7341;DHT22;6870;50.944;6.932;2023-03-23T10:21:27;21.40;27.60
7341;DHT22;6870;50.944;6.932;2023-03-23T10:23:59;21.50;27.40
7341;DHT22;6870;50.944;6.932;2023-03-23T10:26:35;21.60;27.40
7341;DHT22;6870;50.944;6.932;2023-03-23T10:29:15;21.60;27.40
7341;DHT22;6870;50.944;6.932;2023-03-23T10:31:47;21.80;27.80
7341;DHT22;6870;50.944;6.932;2023-03-23T10:34:22;21.50;27.80
7341;DHT22;6870;50.944;6.932;2023-03-23T10:37:02;21.60;28.10
7341;DHT22;6870;50.944;6.932;2023-03-23T10:39:41;21.60;28.30
7341;DHT22;6870;50.944;6.932;2023-03-23T10:42:20;21.70;28.50
7341;DHT22;6870;50.944;6.932;2023-03-23T10:44:48;21.70;28.40
7341;DHT22;6870;50.944;6.932;2023-03-23T10:47:15;21.20;28.10
7341;DHT22;6870;50.944;6.932;2023-03-23T10:49:46;21.60;28.80
7341;DHT22;6870;50.944;6.932;2023-03-23T10:52:26;21.40;28.80
7341;DHT22;6870;50.944;6.932;2023-03-23T10:55:03;21.50;29.00
7341;DHT22;6870;50.944;6.932;2023-03-23T10:57:33;21.50;28.60
7341;DHT22;6870;50.944;6.932;2023-03-23T11:00:03;21.60;29.20
7341;DHT22;6870;50.944;6.932;2023-03-23T11:02:39;21.40;29.20
7341;DHT22;6870;50.944;6.932;2023-03-23T11:05:17;21.60;29.30
7341;DHT22;6870;50.944;6.932;2023-03-23T11:07:51;21.50;29.30
7341;DHT22;6870;50.944;6.932;2023-03-23T11:10:23;21.70;29.50
7341;DHT22;6870;50.944;6.932;2023-03-23T11:12:53;21.70;29.10
7341;DHT22;6870;50.944;6.932;2023-03-23T11:15:28;21.60;29.40
7341;DHT22;6870;50.944;6.932;2023-03-23T11:17:58;21.90;29.60
7341;DHT22;6870;50.944;6.932;2023-03-23T11:20:28;21.50;29.30
7341;DHT22;6870;50.944;6.932;2023-03-23T11:23:07;21.70;29.30
7341;DHT22;6870;50.944;6.932;2023-03-23T11:25:51;21.50;29.20
7341;DHT22;6870;50.944;6.932;2023-03-23T11:28:21;21.70;29.50
7341;DHT22;6870;50.944;6.932;2023-03-23T11:30:48;21.60;29.40
7341;DHT22;6870;50.944;6.932;2023-03-23T11:33:15;21.70;29.60
7341;DHT22;6870;50.944;6.932;2023-03-23T11:35:44;21.80;29.50
7341;DHT22;6870;50.944;6.932;2023-03-23T11:38:18;21.70;29.80
7341;DHT22;6870;50.944;6.932;2023-03-23T11:40:49;21.80;29.70
7341;DHT22;6870;50.944;6.932;2023-03-23T11:43:20;21.90;30.00
7341;DHT22;6870;50.944;6.932;2023-03-23T11:45:54;21.70;30.00
7341;DHT22;6870;50.944;6.932;2023-03-23T11:48:32;21.50;29.90
7341;DHT22;6870;50.944;6.932;2023-03-23T11:51:05;21.90;30.00
7341;DHT22;6870;50.944;6.932;2023-03-23T11:53:43;21.50;30.00
7341;DHT22;6870;50.944;6.932;2023-03-23T11:56:22;22.00;30.70
7341;DHT22;6870;50.944;6.932;2023-03-23T11:58:51;21.50;30.40
7341;DHT22;6870;50.944;6.932;2023-03-23T12:01:27;21.60;30.70
7341;DHT22;6870;50.944;6.932;2023-03-23T12:07:21;21.60;30.60
7341;DHT22;6870;50.944;6.932;2023-03-23T12:10:02;21.90;30.20
7341;DHT22;6870;50.944;6.932;2023-03-23T12:12:44;21.60;30.00
7341;DHT22;6870;50.944;6.932;2023-03-23T12:15:21;21.90;30.20
7341;DHT22;6870;50.944;6.932;2023-03-23T12:17:56;21.80;30.20
7341;DHT22;6870;50.944;6.932;2023-03-23T12:20:34;21.80;30.20
7341;DHT22;6870;50.944;6.932;2023-03-23T12:23:15;22.00;30.40
7341;DHT22;6870;50.944;6.932;2023-03-23T12:26:12;22.40;30.50
7341;DHT22;6870;50.944;6.932;2023-03-23T12:29:03;22.20;29.80
7341;DHT22;6870;50.944;6.932;2023-03-23T12:31:56;22.50;29.50
7341;DHT22;6870;50.944;6.932;2023-03-23T12:34:33;22.70;29.30
7341;DHT22;6870;50.944;6.932;2023-03-23T12:37:19;22.70;29.20
7341;DHT22;6870;50.944;6.932;2023-03-23T12:40:10;22.60;29.00
7341;DHT22;6870;50.944;6.932;2023-03-23T12:42:53;22.70;29.30
7341;DHT22;6870;50.944;6.932;2023-03-23T12:45:41;22.60;29.40
7341;DHT22;6870;50.944;6.932;2023-03-23T12:48:16;22.70;29.10
7341;DHT22;6870;50.944;6.932;2023-03-23T12:50:58;22.60;29.60
7341;DHT22;6870;50.944;6.932;2023-03-23T12:53:34;22.40;29.40
7341;DHT22;6870;50.944;6.932;2023-03-23T12:56:11;22.50;29.60
7341;DHT22;6870;50.944;6.932;2023-03-23T12:58:44;22.50;29.60
7341;DHT22;6870;50.944;6.932;2023-03-23T13:01:17;22.50;29.50
7341;DHT22;6870;50.944;6.932;2023-03-23T13:03:51;22.80;29.60
7341;DHT22;6870;50.944;6.932;2023-03-23T13:06:25;22.80;29.80
7341;DHT22;6870;50.944;6.932;2023-03-23T13:08:58;22.50;29.70
7341;DHT22;6870;50.944;6.932;2023-03-23T13:11:31;22.70;29.80
7341;DHT22;6870;50.944;6.932;2023-03-23T13:14:15;22.40;29.20
7341;DHT22;6870;50.944;6.932;2023-03-23T13:16:55;22.60;29.40
7341;DHT22;6870;50.944;6.932;2023-03-23T13:19:32;22.50;29.60
7341;DHT22;6870;50.944;6.932;2023-03-23T13:22:07;22.60;29.80
7341;DHT22;6870;50.944;6.932;2023-03-23T13:24:46;22.50;29.60
7341;DHT22;6870;50.944;6.932;2023-03-23T13:27:22;22.60;29.70
7341;DHT22;6870;50.944;6.932;2023-03-23T13:29:50;22.50;29.70
7341;DHT22;6870;50.944;6.932;2023-03-23T13:32:19;22.60;29.60
7341;DHT22;6870;50.944;6.932;2023-03-23T13:34:47;22.70;29.90
7341;DHT22;6870;50.944;6.932;2023-03-23T13:37:21;22.40;29.70
7341;DHT22;6870;50.944;6.932;2023-03-23T13:39:52;22.10;29.60
7341;DHT22;6870;50.944;6.932;2023-03-23T13:42:23;22.50;30.00
7341;DHT22;6870;50.944;6.932;2023-03-23T13:45:07;22.60;30.30
7341;DHT22;6870;50.944;6.932;2023-03-23T13:47:46;22.60;30.00
7341;DHT22;6870;50.944;6.932;2023-03-23T13:50:27;22.60;30.00
7341;DHT22;6870;50.944;6.932;2023-03-23T13:52:59;22.50;29.20
7341;DHT22;6870;50.944;6.932;2023-03-23T13:55:40;22.40;29.50
7341;DHT22;6870;50.944;6.932;2023-03-23T13:58:21;22.50;28.40
7341;DHT22;6870;50.944;6.932;2023-03-23T14:01:02;22.70;28.90
7341;DHT22;6870;50.944;6.932;2023-03-23T14:03:41;22.60;29.10
7341;DHT22;6870;50.944;6.932;2023-03-23T14:06:13;22.60;29.20
7341;DHT22;6870;50.944;6.932;2023-03-23T14:08:43;22.60;29.20
7341;DHT22;6870;50.944;6.932;2023-03-23T14:11:14;22.60;29.20
7341;DHT22;6870;50.944;6.932;2023-03-23T14:13:47;22.70;28.90
7341;DHT22;6870;50.944;6.932;2023-03-23T14:16:20;22.60;29.30
7341;DHT22;6870;50.944;6.932;2023-03-23T14:18:55;22.60;29.00
7341;DHT22;6870;50.944;6.932;2023-03-23T14:21:30;22.70;29.50
7341;DHT22;6870;50.944;6.932;2023-03-23T14:24:01;22.60;29.50
7341;DHT22;6870;50.944;6.932;2023-03-23T14:26:29;22.60;29.60
7341;DHT22;6870;50.944;6.932;2023-03-23T14:28:56;22.60;29.80
7341;DHT22;6870;50.944;6.932;2023-03-23T14:31:24;22.70;30.00
7341;DHT22;6870;50.944;6.932;2023-03-23T14:33:55;22.50;30.00
7341;DHT22;6870;50.944;6.932;2023-03-23T14:36:25;22.60;30.00
7341;DHT22;6870;50.944;6.932;2023-03-23T14:39:01;22.30;30.00
7341;DHT22;6870;50.944;6.932;2023-03-23T14:41:32;22.20;30.00
7341;DHT22;6870;50.944;6.932;2023-03-23T14:44:02;22.10;29.70
7341;DHT22;6870;50.944;6.932;2023-03-23T14:46:31;22.30;30.30
7341;DHT22;6870;50.944;6.932;2023-03-23T14:49:02;22.00;30.30
7341;DHT22;6870;50.944;6.932;2023-03-23T14:51:30;22.40;30.10
7341;DHT22;6870;50.944;6.932;2023-03-23T14:53:59;22.40;30.40
7341;DHT22;6870;50.944;6.932;2023-03-23T14:56:33;22.30;30.70
7341;DHT22;6870;50.944;6.932;2023-03-23T14:59:05;22.40;30.70
7341;DHT22;6870;50.944;6.932;2023-03-23T15:01:36;22.10;30.10
7341;DHT22;6870;50.944;6.932;2023-03-23T15:04:09;22.10;30.60
7341;DHT22;6870;50.944;6.932;2023-03-23T15:06:40;22.40;30.50
7341;DHT22;6870;50.944;6.932;2023-03-23T15:09:13;22.40;29.80
7341;DHT22;6870;50.944;6.932;2023-03-23T15:11:43;22.20;29.90
7341;DHT22;6870;50.944;6.932;2023-03-23T15:14:15;22.20;29.90
7341;DHT22;6870;50.944;6.932;2023-03-23T15:16:47;22.40;30.00
7341;DHT22;6870;50.944;6.932;2023-03-23T15:19:21;22.20;29.90
7341;DHT22;6870;50.944;6.932;2023-03-23T15:21:52;22.50;30.00
7341;DHT22;6870;50.944;6.932;2023-03-23T15:24:31;22.30;29.80
7341;DHT22;6870;50.944;6.932;2023-03-23T15:27:11;22.30;29.30
7341;DHT22;6870;50.944;6.932;2023-03-23T15:29:50;22.00;29.60
7341;DHT22;6870;50.944;6.932;2023-03-23T15:32:23;22.40;29.80
7341;DHT22;6870;50.944;6.932;2023-03-23T15:34:54;22.30;29.70
7341;DHT22;6870;50.944;6.932;2023-03-23T15:37:26;22.20;30.00
7341;DHT22;6870;50.944;6.932;2023-03-23T15:39:55;22.20;29.50
7341;DHT22;6870;50.944;6.932;2023-03-23T15:42:25;22.20;29.50
7341;DHT22;6870;50.944;6.932;2023-03-23T15:45:02;22.10;29.50
7341;DHT22;6870;50.944;6.932;2023-03-23T15:47:45;22.20;29.30
7341;DHT22;6870;50.944;6.932;2023-03-23T15:50:16;22.20;29.70
7341;DHT22;6870;50.944;6.932;2023-03-23T15:52:45;22.10;29.20
7341;DHT22;6870;50.944;6.932;2023-03-23T15:55:23;22.00;29.60
7341;DHT22;6870;50.944;6.932;2023-03-23T15:57:52;22.10;29.70
7341;DHT22;6870;50.944;6.932;2023-03-23T16:00:23;21.90;29.40
7341;DHT22;6870;50.944;6.932;2023-03-23T16:02:55;22.20;29.90
7341;DHT22;6870;50.944;6.932;2023-03-23T16:05:26;21.90;29.80
7341;DHT22;6870;50.944;6.932;2023-03-23T16:07:55;22.00;29.90
7341;DHT22;6870;50.944;6.932;2023-03-23T16:10:24;21.90;29.90
7341;DHT22;6870;50.944;6.932;2023-03-23T16:12:53;22.10;30.00
7341;DHT22;6870;50.944;6.932;2023-03-23T16:15:21;21.90;29.90
7341;DHT22;6870;50.944;6.932;2023-03-23T16:17:49;22.20;30.20
7341;DHT22;6870;50.944;6.932;2023-03-23T16:20:18;21.60;29.50
7341;DHT22;6870;50.944;6.932;2023-03-23T16:22:50;22.10;30.00
7341;DHT22;6870;50.944;6.932;2023-03-23T16:25:18;21.80;29.70
7341;DHT22;6870;50.944;6.932;2023-03-23T16:27:47;21.90;30.10
7341;DHT22;6870;50.944;6.932;2023-03-23T16:30:20;22.20;30.50
7341;DHT22;6870;50.944;6.932;2023-03-23T16:32:49;21.60;30.00
7341;DHT22;6870;50.944;6.932;2023-03-23T16:35:20;21.80;29.90
7341;DHT22;6870;50.944;6.932;2023-03-23T16:37:50;21.90;30.30
7341;DHT22;6870;50.944;6.932;2023-03-23T16:40:34;21.80;30.00